createdAt,value
2019-03-03T00:06:10.706Z,91.45
2019-03-03T00:21:14.308Z,91.20
2019-03-03T00:36:18.034Z,98.00
2019-03-03T00:51:28.842Z,88.65
2019-03-03T01:06:48.822Z,86.72
2019-03-03T01:21:56.786Z,79.62
2019-03-03T01:37:00.224Z,83.25
2019-03-03T01:52:03.733Z,78.62
2019-03-03T02:07:08.362Z,79.07
2019-03-03T02:22:11.817Z,82.15
2019-03-03T02:37:15.262Z,73.67
2019-03-03T02:52:18.750Z,69.97
2019-03-03T03:07:26.419Z,65.32
2019-03-03T03:22:48.065Z,64.12
2019-03-03T03:37:53.176Z,58.52
2019-03-03T03:53:13.059Z,63.50
2019-03-03T04:08:36.829Z,60.20
2019-03-03T04:23:41.945Z,52.88
2019-03-03T04:38:50.242Z,56.60
2019-03-03T04:53:55.418Z,59.90
2019-03-03T05:09:03.356Z,64.10
2019-03-03T05:24:06.890Z,57.98
2019-03-03T05:39:10.419Z,57.03
2019-03-03T05:54:14.029Z,64.53
2019-03-03T06:09:17.471Z,72.97
2019-03-03T06:24:20.956Z,61.63
2019-03-03T06:39:24.518Z,62.38
2019-03-03T06:54:28.067Z,58.25
2019-03-03T07:09:31.603Z,52.50
2019-03-03T07:24:35.147Z,41.42
2019-03-03T07:39:38.629Z,36.17
2019-03-03T07:54:42.201Z,25.02
2019-03-03T08:09:45.677Z,15.93
2019-03-03T08:24:51.262Z,16.97
2019-03-03T08:39:54.479Z,14.70
2019-03-03T08:55:05.473Z,14.07
2019-03-03T09:10:10.728Z,12.58
2019-03-03T09:25:30.866Z,10.72
2019-03-03T09:40:52.589Z,12.05
2019-03-03T09:56:12.994Z,13.95
2019-03-03T10:11:24.586Z,16.57
2019-03-03T10:26:29.932Z,21.17
2019-03-03T10:41:38.162Z,20.57
2019-03-03T10:56:46.033Z,20.15
2019-03-03T11:12:03.159Z,25.17
2019-03-03T11:27:10.886Z,16.65
2019-03-03T11:42:16.067Z,17.82
2019-03-03T11:57:30.158Z,17.60
2019-03-03T12:12:38.327Z,18.05
2019-03-03T12:27:59.778Z,15.83
2019-03-03T12:43:04.889Z,16.00
2019-03-03T12:58:18.097Z,15.53
2019-03-03T13:13:23.321Z,15.55
2019-03-03T13:28:43.755Z,16.15
2019-03-03T13:43:47.281Z,15.03
2019-03-03T13:58:50.727Z,15.93
2019-03-03T14:13:54.285Z,10.93
2019-03-03T14:28:57.842Z,12.65
2019-03-03T14:44:01.525Z,15.03
2019-03-03T14:59:05.109Z,13.38
2019-03-03T15:14:08.581Z,18.57
2019-03-03T15:29:13.595Z,15.65
2019-03-03T15:44:17.193Z,18.92
2019-03-03T15:59:20.715Z,15.58
2019-03-03T16:14:30.745Z,15.00
2019-03-03T16:29:34.409Z,16.15
2019-03-03T16:44:38.020Z,19.50
2019-03-03T16:59:41.575Z,22.02
2019-03-03T17:14:45.287Z,32.23
2019-03-03T17:29:48.876Z,23.83
2019-03-03T17:44:52.854Z,32.50
2019-03-03T17:59:56.373Z,22.10
2019-03-03T18:14:59.931Z,20.60
2019-03-03T18:30:03.873Z,21.33
2019-03-03T18:45:12.778Z,19.50
2019-03-03T19:00:23.147Z,20.23
2019-03-03T19:15:26.928Z,20.27
2019-03-03T19:30:30.676Z,16.30
2019-03-03T19:45:49.704Z,17.15
2019-03-03T20:00:54.161Z,14.63
2019-03-03T20:15:58.013Z,15.85
2019-03-03T20:31:01.831Z,15.30
2019-03-03T20:46:05.209Z,12.35
2019-03-03T21:01:08.685Z,13.40
2019-03-03T21:16:12.276Z,10.30
2019-03-03T21:31:15.715Z,14.40
2019-03-03T21:46:19.163Z,15.88
2019-03-03T22:01:22.934Z,15.85
2019-03-03T22:16:26.687Z,17.82
2019-03-03T22:31:30.373Z,11.30
2019-03-03T22:46:34.099Z,15.80
2019-03-03T23:01:38.842Z,13.55
2019-03-03T23:17:10.351Z,16.12
2019-03-03T23:32:14.128Z,13.18
2019-03-03T23:47:17.836Z,16.82
